Aérodrome :
LOGIN :

S'inscrire | Disclaimer

   EN    FR    IT 

 










Légende :    VFR   VFR Marginal   IFR   IFR Intensif   IFR Très Intensif
Visi : 
Plafond : 
>= 8 km
>= 3000ft
5 à 8 km
1000 à 3000 ft
1500m à 5 km
500 à 1000 ft
800 à 1500m
200 à 500 ft
< 800m
< 200 ft
Symboles :   Orages  Brouillard  Fortes neiges  Fortes précipitations  Vent > 20 kt
SIGMETs :   Divers  Orages  Givrage  Turbulence  Onde Orograph.  Cendres Volcan.






- Altitude de l'aérodrome : 499 ft
- Code IATA : TLS


LFBO - Toulouse / Blagnac

DERNIER METAR :
  • 250400Z AUTO 18003KT CAVOK 11/10 Q1017 NOSIG

METARs EXPIRÉS :
  • 250330Z AUTO 17003KT CAVOK 11/10 Q1017 NOSIG
  • 250300Z AUTO VRB03KT CAVOK 11/10 Q1017 NOSIG
  • 250230Z AUTO 16002KT CAVOK 11/10 Q1018 NOSIG
  • 250200Z AUTO 17003KT CAVOK 11/10 Q1018 NOSIG
  • 250130Z AUTO 16002KT CAVOK 12/10 Q1018 NOSIG
  • 250100Z AUTO VRB02KT CAVOK 12/10 Q1018 NOSIG
  • 250030Z AUTO 19003KT CAVOK 13/10 Q1018 NOSIG
  • 250000Z AUTO 19001KT CAVOK 13/11 Q1019 NOSIG
  • 242330Z AUTO 19003KT CAVOK 14/10 Q1019 NOSIG

TAF TAF LFBO
Valide du 25 à 00h jusqu'au 26 à 06h UTC


242300Z 2500/2606 VRB03KT CAVOK
TEMPO 2511/2521 14010KT
BECMG 2600/2601 26010KT
BECMG 2604/2606 BKN012
ATIS : +33 5 62 74 66 36



MET'MAP, la Météo Aéronautique d'un coup d'oeil ! - Copyright ORBIFLY Décembre 2007 - Disclaimer

ORBIFLY MET'MAP TEAM :

Programmation & Développement : Alexandra Zaïnal
Sur une idée originale de : Baudouin d'Aumeries
Soutien technique & logistique : Manuel Goepfert
Assistance : Marc-Olivier Méhu




SOURCES & CREDITS :

   NOAA